Time;durP1;ratioP1;P1;durP2;ratioP2;P2;SDS_P1;SDS_P2;PMS_P1;PMS_P2;Temp;Humidity;BMP_temperature;BMP_pressure;BME280_temperature;BME280_humidity;BME280_pressure;Samples;Min_cycle;Max_cycle;Signal;HPM_P1;HPM_P2
2023/07/11 03:47:26;;;;;;;18.63;12.25;;;22.90;99.90;;;;;;5031718;28;20049;-75
2023/07/11 03:50:31;;;;;;;17.15;12.07;;;22.90;99.90;;;;;;5031703;28;20052;-75
2023/07/11 03:53:34;;;;;;;18.67;12.45;;;22.90;99.90;;;;;;5031816;28;20048;-75
2023/07/11 03:56:38;;;;;;;16.17;11.77;;;22.90;99.90;;;;;;5031821;28;20044;-75
2023/07/11 03:59:42;;;;;;;17.27;12.98;;;22.90;99.90;;;;;;5031544;28;20503;-75
2023/07/11 04:02:46;;;;;;;19.90;13.82;;;22.90;99.90;;;;;;5031528;28;20044;-75
2023/07/11 04:05:50;;;;;;;20.70;13.13;;;23.00;99.90;;;;;;5031771;28;20041;-75
2023/07/11 04:08:54;;;;;;;21.75;12.77;;;23.10;99.90;;;;;;5031532;28;20400;-75
2023/07/11 04:11:58;;;;;;;21.17;11.73;;;23.10;99.90;;;;;;5031333;28;20048;-75
2023/07/11 04:15:02;;;;;;;20.83;13.18;;;23.10;99.90;;;;;;5031384;28;20487;-75
2023/07/11 04:18:07;;;;;;;19.77;12.43;;;23.20;99.90;;;;;;5031384;28;20044;-75
2023/07/11 04:21:10;;;;;;;19.88;12.63;;;23.20;99.90;;;;;;5031688;28;20355;-75
2023/07/11 04:24:14;;;;;;;19.45;14.57;;;23.20;99.90;;;;;;5031338;28;20052;-75
2023/07/11 04:27:18;;;;;;;18.00;12.68;;;23.30;99.90;;;;;;5031607;28;20036;-75
2023/07/11 04:30:22;;;;;;;20.42;13.65;;;23.30;99.90;;;;;;5031571;28;20048;-75
2023/07/11 04:33:26;;;;;;;17.73;13.38;;;23.40;99.90;;;;;;5019051;28;20049;-75
2023/07/11 04:36:30;;;;;;;19.33;12.68;;;23.40;99.90;;;;;;5031291;28;20053;-75
2023/07/11 04:39:35;;;;;;;23.92;12.40;;;24.20;99.90;;;;;;5031262;28;20044;-75
2023/07/11 04:42:39;;;;;;;16.23;11.98;;;25.40;99.90;;;;;;5030837;28;20048;-75
2023/07/11 04:45:43;;;;;;;29.27;12.40;;;26.60;99.90;;;;;;5030942;28;20048;-75
2023/07/11 04:48:47;;;;;;;14.60;10.70;;;27.30;99.90;;;;;;5031304;28;20048;-75
2023/07/11 04:51:50;;;;;;;14.75;10.32;;;28.20;99.90;;;;;;5029794;28;20049;-75
2023/07/11 04:54:54;;;;;;;17.98;11.57;;;28.70;99.90;;;;;;5026298;28;20044;-75
2023/07/11 04:57:58;;;;;;;18.00;11.55;;;29.10;99.90;;;;;;5033510;28;20061;-75
2023/07/11 05:01:13;;;;;;;18.35;10.88;;;29.70;99.90;;;;;;5025120;28;20056;-75
2023/07/11 05:04:17;;;;;;;13.27;9.57;;;30.20;99.90;;;;;;5014036;28;20381;-75
2023/07/11 05:07:21;;;;;;;15.05;10.20;;;30.60;99.90;;;;;;5014252;28;20049;-75
2023/07/11 05:10:25;;;;;;;18.38;10.27;;;31.20;99.90;;;;;;5014004;28;20045;-75
2023/07/11 05:13:31;;;;;;;15.23;9.80;;;31.80;99.90;;;;;;5037515;28;20060;-75
2023/07/11 05:16:35;;;;;;;18.27;10.18;;;32.40;99.90;;;;;;5014829;28;20064;-75
2023/07/11 05:19:39;;;;;;;14.85;9.80;;;32.50;99.90;;;;;;5015067;28;20426;-75
2023/07/11 05:22:43;;;;;;;15.77;9.05;;;32.30;99.90;;;;;;5028818;28;20052;-75
2023/07/11 05:25:47;;;;;;;17.50;9.90;;;32.70;99.90;;;;;;5033677;28;20338;-75
2023/07/11 05:28:51;;;;;;;16.40;9.65;;;33.10;99.90;;;;;;5033967;28;20500;-75
2023/07/11 05:31:55;;;;;;;16.98;9.60;;;33.50;99.90;;;;;;5032985;28;20064;-75
2023/07/11 05:34:59;;;;;;;19.95;9.98;;;33.60;99.90;;;;;;5033243;28;20056;-75
2023/07/11 05:38:03;;;;;;;12.98;9.43;;;33.60;99.90;;;;;;5033680;28;20048;-75
2023/07/11 05:41:07;;;;;;;24.02;9.70;;;33.80;99.90;;;;;;5033604;28;20052;-75
2023/07/11 05:44:13;;;;;;;16.67;9.80;;;32.60;99.90;;;;;;5033364;28;20043;-75
2023/07/11 05:47:17;;;;;;;23.15;9.80;;;30.80;99.90;;;;;;5033485;28;20053;-75
2023/07/11 05:50:21;;;;;;;16.25;9.35;;;29.80;99.90;;;;;;5033490;28;20048;-76
2023/07/11 05:53:28;;;;;;;14.60;9.60;;;29.70;99.90;;;;;;5025201;28;20506;-75
2023/07/11 05:56:33;;;;;;;16.50;9.25;;;30.10;99.90;;;;;;5031362;28;20044;-76
2023/07/11 05:59:37;;;;;;;16.02;8.27;;;30.80;99.90;;;;;;5014532;28;20777;-75
2023/07/11 06:02:41;;;;;;;13.23;8.00;;;31.40;99.90;;;;;;5013872;28;20049;-75
2023/07/11 06:05:45;;;;;;;12.18;8.00;;;32.20;99.90;;;;;;5024579;28;20048;-76
2023/07/11 06:08:49;;;;;;;12.40;8.60;;;31.90;99.90;;;;;;5032425;28;20052;-75
2023/07/11 06:11:52;;;;;;;13.10;8.98;;;31.10;99.90;;;;;;5033325;28;20045;-76
2023/07/11 06:14:56;;;;;;;15.18;9.43;;;30.60;99.90;;;;;;5025433;28;20494;-75
2023/07/11 06:18:01;;;;;;;14.35;7.43;;;30.90;99.90;;;;;;5020840;28;20041;-75
2023/07/11 06:21:07;;;;;;;15.70;8.48;;;31.60;99.90;;;;;;5016999;28;20041;-75
2023/07/11 06:24:11;;;;;;;13.10;7.43;;;32.30;99.90;;;;;;5032724;28;20597;-75
2023/07/11 06:27:15;;;;;;;14.73;8.02;;;33.10;99.90;;;;;;5021871;28;20439;-74
2023/07/11 06:30:19;;;;;;;14.18;7.35;;;33.40;99.90;;;;;;5026632;28;20045;-75
2023/07/11 06:33:23;;;;;;;13.20;7.22;;;33.70;99.90;;;;;;5028788;28;20392;-74
2023/07/11 06:36:27;;;;;;;14.98;7.20;;;33.70;99.90;;;;;;5029856;28;20044;-75
2023/07/11 06:39:31;;;;;;;16.13;7.03;;;33.60;99.90;;;;;;5031572;28;20040;-73
2023/07/11 06:42:35;;;;;;;13.60;7.43;;;33.80;99.90;;;;;;5024328;28;20048;-74
2023/07/11 06:45:38;;;;;;;15.23;7.05;;;33.40;99.90;;;;;;5013068;28;20056;-75
2023/07/11 06:48:43;;;;;;;22.00;8.38;;;34.10;99.90;;;;;;5027179;28;20053;-75
2023/07/11 06:51:49;;;;;;;14.70;6.93;;;34.80;99.90;;;;;;5023839;28;20052;-75
2023/07/11 06:54:55;;;;;;;14.23;7.25;;;35.60;99.90;;;;;;5023001;28;20048;-75
2023/07/11 06:57:59;;;;;;;13.18;6.20;;;36.10;99.90;;;;;;5027658;28;20044;-75
2023/07/11 07:01:05;;;;;;;12.77;6.30;;;36.40;99.20;;;;;;5030032;28;20048;-75
2023/07/11 07:04:09;;;;;;;13.85;5.55;;;36.80;99.00;;;;;;5030616;28;20053;-74
2023/07/11 07:07:13;;;;;;;16.77;6.82;;;37.30;97.90;;;;;;5029849;28;20384;-75
2023/07/11 07:10:17;;;;;;;14.75;5.95;;;37.30;97.40;;;;;;5024407;28;20404;-76
2023/07/11 07:13:23;;;;;;;15.45;6.68;;;37.70;97.40;;;;;;5030065;28;20040;-76
2023/07/11 07:16:28;;;;;;;10.48;5.97;;;36.50;96.50;;;;;;5030699;28;20040;-76
2023/07/11 07:19:32;;;;;;;10.95;6.75;;;36.60;98.00;;;;;;5023921;28;20068;-76
2023/07/11 07:22:36;;;;;;;15.20;6.70;;;35.70;98.00;;;;;;5027968;28;20060;-77
2023/07/11 07:25:41;;;;;;;15.90;6.15;;;35.80;98.10;;;;;;5027094;28;20052;-74
2023/07/11 07:28:45;;;;;;;7.57;5.65;;;36.80;97.20;;;;;;5031816;28;20053;-76
2023/07/11 07:31:49;;;;;;;13.23;5.85;;;37.50;97.00;;;;;;5026072;28;20045;-76
2023/07/11 07:34:53;;;;;;;18.67;6.40;;;37.10;97.40;;;;;;5023877;28;20044;-76
2023/07/11 07:37:57;;;;;;;10.52;6.13;;;35.40;97.90;;;;;;5025531;28;20049;-74
2023/07/11 07:41:05;;;;;;;16.52;6.32;;;36.10;97.80;;;;;;5026670;28;20036;-74
2023/07/11 07:44:09;;;;;;;13.80;6.30;;;36.60;97.50;;;;;;5027354;28;20032;-75
2023/07/11 07:47:13;;;;;;;12.35;5.90;;;37.40;96.80;;;;;;5020561;28;20061;-78
2023/07/11 07:50:17;;;;;;;14.57;6.10;;;36.20;96.90;;;;;;5027666;28;20040;-75
2023/07/11 07:53:21;;;;;;;10.32;6.20;;;34.90;98.30;;;;;;5028177;28;20040;-78
2023/07/11 07:56:26;;;;;;;14.70;6.63;;;35.00;98.00;;;;;;5026160;28;20048;-76
2023/07/11 07:59:30;;;;;;;11.15;6.28;;;35.60;97.90;;;;;;5028992;28;20067;-75
2023/07/11 08:02:35;;;;;;;12.18;6.00;;;36.30;97.90;;;;;;5028990;28;20044;-78
2023/07/11 08:05:39;;;;;;;11.27;6.05;;;38.00;96.40;;;;;;5029338;28;20372;-76
2023/07/11 08:08:48;;;;;;;14.55;6.38;;;39.30;96.20;;;;;;5030367;28;20044;-76
2023/07/11 08:11:53;;;;;;;13.07;6.00;;;36.60;96.20;;;;;;5022138;28;20052;-73
2023/07/11 08:14:57;;;;;;;11.63;6.05;;;38.40;96.80;;;;;;5026358;28;20048;-73
2023/07/11 08:18:01;;;;;;;10.35;6.30;;;40.00;95.10;;;;;;5030135;28;20060;-75
2023/07/11 08:21:05;;;;;;;9.43;5.60;;;38.20;95.70;;;;;;5026228;28;20491;-76
2023/07/11 08:24:09;;;;;;;10.75;6.13;;;38.40;95.80;;;;;;5031106;28;20550;-75
2023/07/11 08:27:13;;;;;;;14.80;6.80;;;37.60;96.40;;;;;;5030114;28;20041;-76
2023/07/11 08:30:17;;;;;;;9.18;5.85;;;37.60;96.80;;;;;;5027076;28;20048;-75
2023/07/11 08:33:21;;;;;;;11.82;6.80;;;39.30;95.60;;;;;;5028544;28;20052;-74
2023/07/11 08:36:25;;;;;;;15.15;6.35;;;36.50;96.20;;;;;;5024239;28;20040;-75
2023/07/11 08:39:29;;;;;;;10.70;6.30;;;37.60;96.80;;;;;;5023087;28;20495;-74
2023/07/11 08:42:45;;;;;;;11.50;5.40;;;38.30;95.90;;;;;;5023871;28;20068;-74
2023/07/11 08:46:05;;;;;;;10.18;5.55;;;39.70;95.40;;;;;;5027137;28;20044;-74
2023/07/11 08:49:16;;;;;;;10.27;5.38;;;41.10;94.20;;;;;;5027835;28;20507;-73
2023/07/11 08:52:23;;;;;;;12.00;5.20;;;41.70;93.70;;;;;;5023881;28;20053;-74
2023/07/11 08:55:31;;;;;;;7.63;4.97;;;42.00;92.60;;;;;;5025466;28;20044;-72
2023/07/11 08:58:38;;;;;;;9.57;5.20;;;42.70;92.30;;;;;;5021056;28;20049;-75
2023/07/11 09:01:52;;;;;;;12.15;5.38;;;43.50;91.60;;;;;;5027753;28;20052;-74
2023/07/11 09:04:58;;;;;;;18.45;6.28;;;43.00;91.30;;;;;;5010110;28;20048;-74
2023/07/11 09:08:02;;;;;;;10.52;4.82;;;42.40;90.70;;;;;;5026734;28;20049;-73
2023/07/11 09:11:09;;;;;;;11.02;5.38;;;42.60;90.40;;;;;;5011049;28;20531;-74
2023/07/11 09:14:28;;;;;;;11.63;5.20;;;41.90;91.90;;;;;;5024767;28;20064;-74
2023/07/11 09:17:43;;;;;;;8.15;5.00;;;43.50;91.10;;;;;;5021785;28;20041;-75
2023/07/11 09:21:22;;;;;;;11.82;5.03;;;42.40;90.40;;;;;;5024208;28;20049;-72
2023/07/11 09:24:51;;;;;;;11.85;4.78;;;43.20;90.90;;;;;;5013123;28;20061;-74
2023/07/11 09:27:59;;;;;;;16.20;4.93;;;42.00;89.60;;;;;;5026160;28;20053;-71
2023/07/11 09:31:08;;;;;;;17.48;5.75;;;43.60;90.10;;;;;;5020975;28;20036;-75
2023/07/11 09:34:36;;;;;;;10.48;4.90;;;41.60;89.50;;;;;;5027303;28;20056;-76
2023/07/11 09:37:45;;;;;;;10.00;4.97;;;43.50;88.80;;;;;;5026252;28;20052;-79
2023/07/11 09:41:10;;;;;;;9.75;4.35;;;45.60;87.10;;;;;;5022060;28;20519;-75
2023/07/11 09:44:14;;;;;;;11.68;4.35;;;44.60;84.80;;;;;;5021667;28;20044;-75
2023/07/11 09:47:18;;;;;;;10.93;4.53;;;45.40;83.80;;;;;;5027287;28;20510;-76
2023/07/11 09:50:40;;;;;;;10.68;4.18;;;47.00;81.50;;;;;;5027331;28;20053;-74
2023/07/11 09:53:46;;;;;;;10.90;4.07;;;47.10;79.50;;;;;;5027741;28;20053;-75
2023/07/11 09:56:50;;;;;;;9.63;4.20;;;48.30;79.40;;;;;;5030805;28;20048;-76
2023/07/11 10:00:05;;;;;;;14.48;4.20;;;47.90;77.80;;;;;;5021674;28;20508;-75
2023/07/11 10:03:15;;;;;;;13.65;4.60;;;47.80;77.30;;;;;;5013305;28;20041;-74
2023/07/11 10:06:43;;;;;;;9.43;3.90;;;49.40;76.20;;;;;;5014134;28;20057;-78
2023/07/11 10:09:50;;;;;;;14.05;4.07;;;49.50;72.70;;;;;;5023184;28;20044;-75
2023/07/11 10:12:54;;;;;;;13.52;4.03;;;47.70;74.10;;;;;;5021844;28;20507;-75
2023/07/11 10:15:59;;;;;;;10.43;3.78;;;48.10;73.50;;;;;;5031945;28;20044;-75
2023/07/11 10:19:03;;;;;;;10.13;3.75;;;48.90;73.40;;;;;;5033502;28;20057;-75
2023/07/11 10:22:16;;;;;;;15.35;4.25;;;49.30;74.20;;;;;;5032177;28;20055;-74
2023/07/11 10:25:27;;;;;;;17.30;4.47;;;49.30;70.90;;;;;;5032788;28;20052;-72
2023/07/11 10:28:38;;;;;;;14.35;4.07;;;48.50;69.80;;;;;;5026891;28;20056;-74
2023/07/11 10:32:17;;;;;;;31.42;4.65;;;47.80;71.20;;;;;;5026978;28;20052;-75
2023/07/11 10:35:23;;;;;;;14.80;4.30;;;47.40;71.60;;;;;;5031902;28;20380;-74
2023/07/11 10:38:43;;;;;;;11.45;4.40;;;47.70;71.60;;;;;;5024203;28;20057;-74
2023/07/11 10:41:51;;;;;;;16.98;4.43;;;47.30;70.90;;;;;;5027699;28;20054;-72
2023/07/11 10:45:24;;;;;;;15.63;4.68;;;44.30;73.40;;;;;;5029546;28;20530;-72
2023/07/11 10:48:34;;;;;;;12.50;4.80;;;46.00;71.70;;;;;;5009417;28;20045;-73
2023/07/11 10:51:52;;;;;;;17.10;5.38;;;44.80;71.90;;;;;;5016039;28;20056;-74
2023/07/11 10:55:20;;;;;;;16.53;4.60;;;43.20;73.90;;;;;;5031758;28;20384;-73
2023/07/11 10:58:24;;;;;;;15.50;4.55;;;42.90;72.50;;;;;;5031089;28;20053;-73
2023/07/11 11:01:40;;;;;;;14.65;4.97;;;45.20;72.40;;;;;;5032352;28;20052;-73
2023/07/11 11:05:09;;;;;;;12.90;4.43;;;47.00;70.70;;;;;;5028813;28;20057;-73
2023/07/11 11:08:32;;;;;;;15.30;3.90;;;47.10;70.90;;;;;;5025559;28;20044;-74
2023/07/11 11:12:03;;;;;;;12.40;4.07;;;47.30;69.90;;;;;;5031051;28;20790;-74
2023/07/11 11:15:13;;;;;;;14.18;5.28;;;48.10;69.50;;;;;;5032250;28;20051;-74
2023/07/11 11:18:17;;;;;;;14.35;4.13;;;48.50;68.30;;;;;;5030653;28;20045;-70
2023/07/11 11:21:43;;;;;;;10.70;4.65;;;48.70;69.20;;;;;;5030873;28;20044;-73
2023/07/11 11:25:18;;;;;;;21.77;5.22;;;47.70;69.10;;;;;;5028018;28;20052;-73
2023/07/11 11:28:56;;;;;;;19.23;4.95;;;44.20;74.60;;;;;;5026084;28;20037;-72
2023/07/11 11:32:06;;;;;;;11.32;4.32;;;44.20;71.50;;;;;;5020863;28;20048;-73
2023/07/11 11:35:15;;;;;;;18.13;5.30;;;45.50;71.70;;;;;;5019346;28;20045;-74
2023/07/11 11:38:49;;;;;;;15.18;4.70;;;46.40;70.00;;;;;;5031912;28;20052;-74
2023/07/11 11:41:59;;;;;;;22.20;5.43;;;47.10;70.30;;;;;;5011639;28;20538;-74
2023/07/11 11:45:26;;;;;;;25.70;5.22;;;45.90;70.80;;;;;;5025969;28;20090;-75
2023/07/11 11:48:31;;;;;;;18.95;6.10;;;43.00;72.00;;;;;;5011283;28;20056;-74
2023/07/11 11:51:36;;;;;;;15.43;5.47;;;44.40;72.60;;;;;;5029279;28;20076;-75
2023/07/11 11:54:46;;;;;;;17.17;4.32;;;45.60;72.80;;;;;;5031260;28;20040;-74
2023/07/11 11:57:50;;;;;;;22.50;5.40;;;46.50;69.90;;;;;;5030475;28;20036;-73
2023/07/11 12:00:56;;;;;;;19.00;5.72;;;45.30;70.90;;;;;;5007238;28;20041;-74
2023/07/11 12:04:00;;;;;;;30.45;6.13;;;44.80;70.60;;;;;;5013071;28;20041;-72
2023/07/11 12:07:13;;;;;;;18.02;5.20;;;44.70;71.50;;;;;;5017083;28;20050;-73
2023/07/11 12:10:22;;;;;;;24.77;5.40;;;43.20;73.40;;;;;;5031418;28;20064;-71
2023/07/11 12:13:31;;;;;;;22.88;5.38;;;41.30;73.30;;;;;;5025307;28;20396;-72
2023/07/11 12:16:35;;;;;;;24.92;5.82;;;41.60;74.70;;;;;;5020257;28;20056;-74
2023/07/11 12:19:43;;;;;;;24.88;5.90;;;40.60;74.80;;;;;;5021600;28;20049;-72
2023/07/11 12:22:48;;;;;;;27.83;5.60;;;41.00;76.40;;;;;;5023894;28;20053;-73
2023/07/11 12:26:33;;;;;;;18.23;6.25;;;41.30;75.50;;;;;;5023986;28;20041;-73
2023/07/11 12:29:50;;;;;;;21.65;5.88;;;41.10;74.20;;;;;;4922021;29;20070;-74
2023/07/11 12:33:14;;;;;;;30.60;7.22;;;42.00;72.90;;;;;;4931198;28;20047;-73
2023/07/11 12:36:44;;;;;;;26.77;6.57;;;41.90;73.70;;;;;;5025487;28;20390;-74
